Time;durP1;ratioP1;P1;durP2;ratioP2;P2;SDS_P1;SDS_P2;PMS_P1;PMS_P2;Temp;Humidity;BMP_temperature;BMP_pressure;BME280_temperature;BME280_humidity;BME280_pressure;Samples;Min_cycle;Max_cycle;Signal;HPM_P1;HPM_P2
2021/12/12 00:01:38;;;;;;;21.20;10.10;;;5.10;99.90;;;;;;5092408;28;20092;-60
2021/12/12 00:04:14;;;;;;;17.60;8.23;;;5.10;99.90;;;;;;5092692;28;20020;-60
2021/12/12 00:06:53;;;;;;;26.10;9.85;;;5.00;99.90;;;;;;5092489;28;20016;-60
2021/12/12 00:09:44;;;;;;;26.70;9.00;;;5.10;99.90;;;;;;5092398;28;20032;-60
2021/12/12 00:12:17;;;;;;;28.20;8.68;;;5.10;99.90;;;;;;5092499;28;20036;-60
2021/12/12 00:14:43;;;;;;;21.33;9.02;;;5.10;99.90;;;;;;5096075;28;20048;-60
2021/12/12 00:17:11;;;;;;;24.55;9.85;;;5.10;99.90;;;;;;5078025;28;20491;-60
2021/12/12 00:19:37;;;;;;;23.40;9.93;;;5.10;99.90;;;;;;5096148;28;20496;-60
2021/12/12 00:22:08;;;;;;;21.83;9.15;;;5.10;99.90;;;;;;5096118;28;20464;-60
2021/12/12 00:24:35;;;;;;;20.83;9.30;;;5.10;99.90;;;;;;5095878;28;20028;-60
2021/12/12 00:27:00;;;;;;;21.58;8.82;;;5.10;99.90;;;;;;5078325;28;20441;-60
2021/12/12 00:29:27;;;;;;;18.98;8.23;;;5.10;99.90;;;;;;5077906;28;20475;-60
2021/12/12 00:31:59;;;;;;;22.67;9.68;;;5.10;99.90;;;;;;5096092;28;20032;-60
2021/12/12 00:34:26;;;;;;;27.98;9.85;;;5.10;99.90;;;;;;5095795;28;20089;-60
2021/12/12 00:36:52;;;;;;;24.60;8.55;;;5.10;99.90;;;;;;5095850;28;20081;-60
2021/12/12 00:39:21;;;;;;;23.77;8.25;;;5.10;99.90;;;;;;5095812;28;20020;-60
2021/12/12 00:42:07;;;;;;;30.03;9.20;;;5.10;99.90;;;;;;5095828;28;20065;-60
2021/12/12 00:44:36;;;;;;;23.40;8.35;;;5.10;99.90;;;;;;5095587;28;20141;-60
2021/12/12 00:47:06;;;;;;;18.30;7.40;;;5.10;99.90;;;;;;5095647;28;20082;-60
2021/12/12 00:49:32;;;;;;;26.35;10.02;;;5.10;99.90;;;;;;5095593;28;20039;-60
2021/12/12 00:51:58;;;;;;;19.00;8.05;;;5.10;99.90;;;;;;5077527;28;20028;-60
2021/12/12 00:54:30;;;;;;;26.65;8.88;;;5.10;99.90;;;;;;5095218;28;20020;-60
2021/12/12 00:56:59;;;;;;;19.95;7.70;;;5.10;99.90;;;;;;5095857;28;20072;-60
2021/12/12 00:59:26;;;;;;;25.67;9.13;;;5.20;99.90;;;;;;5095301;28;20016;-60
2021/12/12 01:01:53;;;;;;;21.92;8.27;;;5.10;99.90;;;;;;5085894;28;20097;-60
2021/12/12 01:04:24;;;;;;;21.20;7.25;;;5.10;99.90;;;;;;5075200;28;20025;-60
2021/12/12 01:06:50;;;;;;;18.27;7.15;;;5.10;99.90;;;;;;5065428;28;20055;-59
2021/12/12 01:09:21;;;;;;;32.78;9.02;;;5.10;99.90;;;;;;5095634;28;20066;-60
2021/12/12 01:11:49;;;;;;;26.13;7.85;;;5.10;99.90;;;;;;5095033;28;20043;-59
2021/12/12 01:14:23;;;;;;;20.98;7.32;;;5.10;99.90;;;;;;5094782;28;20119;-60
2021/12/12 01:16:58;;;;;;;23.05;7.63;;;5.10;99.90;;;;;;5095097;28;20429;-60
2021/12/12 01:19:29;;;;;;;16.50;7.63;;;5.10;99.90;;;;;;5095073;28;20024;-60
2021/12/12 01:22:00;;;;;;;22.75;7.45;;;5.10;99.90;;;;;;5095065;28;20021;-60
2021/12/12 01:24:32;;;;;;;20.73;6.70;;;5.10;99.90;;;;;;5094094;28;20099;-60
2021/12/12 01:27:00;;;;;;;30.50;9.70;;;5.20;99.90;;;;;;5095080;28;20220;-60
2021/12/12 01:29:27;;;;;;;19.85;7.75;;;5.10;99.90;;;;;;5094883;28;20024;-60
2021/12/12 01:31:54;;;;;;;19.52;7.85;;;5.10;99.90;;;;;;5076728;28;20021;-60
2021/12/12 01:34:25;;;;;;;24.17;8.25;;;5.10;99.90;;;;;;5076610;28;20024;-60
2021/12/12 01:39:35;;;;;;;21.23;7.00;;;5.20;99.90;;;;;;5095010;28;20028;-60
2021/12/12 01:42:19;;;;;;;21.20;8.10;;;5.20;99.90;;;;;;5059812;28;20101;-60
2021/12/12 01:44:51;;;;;;;18.27;6.57;;;5.20;99.90;;;;;;5094410;28;20400;-60
2021/12/12 01:47:33;;;;;;;15.68;6.88;;;5.20;99.90;;;;;;5077273;28;20035;-60
2021/12/12 01:50:03;;;;;;;21.98;7.53;;;5.30;99.90;;;;;;5094534;28;20101;-61
2021/12/12 01:52:31;;;;;;;17.05;6.50;;;5.20;99.90;;;;;;5094387;28;20035;-60
2021/12/12 01:55:06;;;;;;;22.85;6.85;;;5.20;99.90;;;;;;5094372;28;20024;-60
2021/12/12 01:57:36;;;;;;;17.13;6.25;;;5.20;99.90;;;;;;5094404;28;20013;-61
2021/12/12 02:00:14;;;;;;;16.92;6.35;;;5.20;99.90;;;;;;5094426;28;20028;-60
2021/12/12 02:02:41;;;;;;;23.42;6.85;;;5.20;99.90;;;;;;5094275;28;20120;-61
2021/12/12 02:05:12;;;;;;;28.83;6.90;;;5.30;99.90;;;;;;5094092;28;20024;-61
2021/12/12 02:07:43;;;;;;;22.75;6.40;;;5.20;99.90;;;;;;5094087;28;20043;-60
2021/12/12 02:10:17;;;;;;;21.73;7.22;;;5.30;99.90;;;;;;5075933;28;20031;-60
2021/12/12 02:12:44;;;;;;;23.73;7.82;;;5.30;99.90;;;;;;5093864;28;20027;-60
2021/12/12 02:15:12;;;;;;;19.30;7.20;;;5.20;99.90;;;;;;5093912;28;20036;-60
2021/12/12 02:17:42;;;;;;;20.98;7.03;;;5.30;99.90;;;;;;5093892;28;20020;-60
2021/12/12 02:20:22;;;;;;;21.50;6.38;;;5.20;99.90;;;;;;5076858;28;20024;-61
2021/12/12 02:36:22;;;;;;;28.35;8.82;;;5.20;99.90;;;;;;5092260;28;20085;-60
2021/12/12 02:38:50;;;;;;;18.95;6.75;;;5.20;99.90;;;;;;5093242;28;20434;-60
2021/12/12 02:41:17;;;;;;;20.50;7.60;;;5.20;99.90;;;;;;5093345;28;20028;-60
2021/12/12 02:43:57;;;;;;;25.45;7.50;;;5.20;99.90;;;;;;5093238;28;20056;-60
2021/12/12 02:46:29;;;;;;;23.98;8.00;;;5.30;99.90;;;;;;5093691;28;20445;-60
2021/12/12 02:49:05;;;;;;;28.98;8.63;;;5.30;99.90;;;;;;5093634;28;20032;-60
2021/12/12 02:51:31;;;;;;;16.85;6.82;;;5.30;99.90;;;;;;5093397;28;20024;-60
2021/12/12 02:53:58;;;;;;;22.55;8.95;;;5.30;99.90;;;;;;5093138;28;20031;-60
2021/12/12 02:56:29;;;;;;;30.35;8.48;;;5.30;99.90;;;;;;5092952;28;20036;-60
2021/12/12 02:58:55;;;;;;;20.38;7.95;;;5.30;99.90;;;;;;5093252;28;20098;-60
2021/12/12 03:01:30;;;;;;;18.00;7.60;;;5.30;99.90;;;;;;5093254;28;20052;-60
2021/12/12 03:03:56;;;;;;;27.63;8.27;;;5.30;99.90;;;;;;5093102;28;20039;-60
2021/12/12 03:06:25;;;;;;;21.98;8.15;;;5.30;99.90;;;;;;5092987;28;20028;-60
2021/12/12 03:08:54;;;;;;;21.75;8.18;;;5.30;99.90;;;;;;5093008;28;20059;-60
2021/12/12 03:11:20;;;;;;;25.95;8.65;;;5.20;99.90;;;;;;5093128;28;20032;-60
2021/12/12 03:13:46;;;;;;;21.13;7.97;;;5.30;99.90;;;;;;5092598;28;20085;-60
2021/12/12 03:16:13;;;;;;;24.73;8.13;;;5.30;99.90;;;;;;5092998;28;20055;-60
2021/12/12 03:18:44;;;;;;;21.98;8.45;;;5.30;99.90;;;;;;5092932;28;20027;-60
2021/12/12 03:21:17;;;;;;;27.23;8.85;;;5.30;99.90;;;;;;5074785;28;20024;-60
2021/12/12 03:23:51;;;;;;;29.02;9.32;;;5.20;99.90;;;;;;5093100;28;20066;-60
2021/12/12 03:26:19;;;;;;;27.20;8.90;;;5.20;99.90;;;;;;5092859;28;20529;-60
2021/12/12 03:28:48;;;;;;;21.98;8.90;;;5.20;99.90;;;;;;5092881;28;20376;-60
2021/12/12 03:31:28;;;;;;;30.25;10.00;;;5.20;99.90;;;;;;5092880;28;20118;-60
2021/12/12 03:33:54;;;;;;;24.13;10.02;;;5.20;99.90;;;;;;5074640;28;20032;-60
2021/12/12 03:36:20;;;;;;;29.65;10.88;;;5.20;99.90;;;;;;5092764;28;20034;-60
2021/12/12 03:38:56;;;;;;;24.58;8.77;;;5.20;99.90;;;;;;5091458;28;20020;-60
2021/12/12 03:41:25;;;;;;;24.35;9.57;;;5.20;99.90;;;;;;5074914;28;20035;-61
2021/12/12 03:43:55;;;;;;;23.08;9.85;;;5.20;99.90;;;;;;5092235;28;20050;-60
2021/12/12 03:46:21;;;;;;;;;;;5.20;99.90;;;;;;5092574;28;20036;-60
2021/12/12 03:48:47;;;;;;;23.25;9.20;;;5.20;99.90;;;;;;5096104;28;19950;-60
2021/12/12 03:51:15;;;;;;;19.67;9.07;;;5.20;99.90;;;;;;5096770;28;20081;-60
2021/12/12 03:53:41;;;;;;;24.20;10.02;;;5.20;99.90;;;;;;5096679;28;20475;-60
2021/12/12 03:56:09;;;;;;;27.65;10.40;;;5.30;99.90;;;;;;5096678;28;20034;-60
2021/12/12 03:58:35;;;;;;;25.27;11.25;;;5.30;99.90;;;;;;5078327;28;20016;-60
2021/12/12 04:01:11;;;;;;;26.08;12.25;;;5.30;99.90;;;;;;5096550;28;20421;-60
2021/12/12 04:03:38;;;;;;;18.77;9.57;;;5.30;99.90;;;;;;5096567;28;20031;-60
2021/12/12 04:06:09;;;;;;;23.08;11.40;;;5.30;99.90;;;;;;5078587;28;20570;-60
2021/12/12 04:08:38;;;;;;;24.77;10.57;;;5.40;99.90;;;;;;5096355;28;20035;-60
2021/12/12 04:11:07;;;;;;;23.58;11.27;;;5.40;99.90;;;;;;5096360;28;20099;-60
2021/12/12 04:13:42;;;;;;;20.75;9.82;;;5.40;99.90;;;;;;5095869;28;20499;-60
2021/12/12 04:16:08;;;;;;;22.92;10.60;;;5.40;99.90;;;;;;5096312;28;20040;-60
2021/12/12 04:18:33;;;;;;;19.65;9.90;;;5.50;99.90;;;;;;5096270;28;20533;-60
2021/12/12 04:20:59;;;;;;;25.67;11.30;;;5.50;99.90;;;;;;5096223;28;20028;-60
2021/12/12 04:23:27;;;;;;;23.58;11.15;;;5.50;99.90;;;;;;5096215;28;20475;-60
2021/12/12 04:25:54;;;;;;;22.83;10.82;;;5.60;99.90;;;;;;5095854;28;20031;-60
2021/12/12 04:28:20;;;;;;;21.63;10.25;;;5.60;99.90;;;;;;5077798;28;20036;-60
2021/12/12 04:30:45;;;;;;;22.48;10.82;;;5.60;99.90;;;;;;5094732;28;20027;-60
2021/12/12 04:33:11;;;;;;;19.45;10.43;;;5.60;99.90;;;;;;5077707;28;20497;-60
2021/12/12 04:35:37;;;;;;;26.55;10.95;;;5.60;99.90;;;;;;5095848;28;20032;-59
2021/12/12 04:38:04;;;;;;;16.98;10.10;;;5.70;99.90;;;;;;5095929;28;20042;-60
2021/12/12 04:40:34;;;;;;;23.60;12.15;;;5.70;99.90;;;;;;5095760;28;20066;-61
2021/12/12 04:43:01;;;;;;;21.73;11.05;;;5.70;99.90;;;;;;5095862;28;20024;-60
2021/12/12 04:46:04;;;;;;;18.65;10.63;;;5.70;99.90;;;;;;5095562;28;20028;-60
2021/12/12 04:51:43;;;;;;;21.95;12.95;;;5.80;99.90;;;;;;5095926;28;20039;-60
2021/12/12 04:54:12;;;;;;;22.63;11.90;;;5.80;99.90;;;;;;5077403;28;20020;-60
2021/12/12 04:57:03;;;;;;;19.80;12.48;;;5.90;99.90;;;;;;5077289;28;20024;-60
2021/12/12 04:59:49;;;;;;;24.05;12.20;;;5.90;99.90;;;;;;5094414;28;20024;-60
2021/12/12 05:02:29;;;;;;;20.52;12.25;;;5.90;99.90;;;;;;5095441;28;20016;-60
2021/12/12 05:05:10;;;;;;;19.10;12.20;;;6.00;99.90;;;;;;5095273;28;20032;-60
2021/12/12 05:07:57;;;;;;;19.98;11.48;;;6.00;99.90;;;;;;5095104;28;20372;-60
2021/12/12 05:10:36;;;;;;;17.80;11.18;;;6.00;99.90;;;;;;5077174;28;20048;-60
2021/12/12 05:13:14;;;;;;;19.92;12.00;;;6.10;99.90;;;;;;5095145;28;20066;-60
2021/12/12 05:15:45;;;;;;;22.50;11.98;;;6.10;99.90;;;;;;5094794;28;20070;-60
2021/12/12 05:18:12;;;;;;;24.67;13.43;;;6.10;99.90;;;;;;5077095;28;20062;-60
2021/12/12 05:20:43;;;;;;;18.00;11.00;;;6.10;99.90;;;;;;5095144;28;20077;-60
2021/12/12 05:23:14;;;;;;;15.70;10.93;;;6.10;99.90;;;;;;5077022;28;20149;-60
2021/12/12 05:26:01;;;;;;;15.98;10.60;;;6.20;99.90;;;;;;5095038;28;20368;-60
2021/12/12 05:28:42;;;;;;;22.02;12.30;;;6.20;99.90;;;;;;5094901;28;20016;-60
2021/12/12 05:31:10;;;;;;;13.50;9.85;;;6.20;99.90;;;;;;5094884;28;20020;-60
2021/12/12 05:33:36;;;;;;;19.27;11.15;;;6.20;99.90;;;;;;5094742;28;20116;-60
2021/12/12 05:36:06;;;;;;;15.38;10.77;;;6.20;99.90;;;;;;5076721;28;20028;-60
2021/12/12 05:38:32;;;;;;;18.73;11.02;;;6.20;99.90;;;;;;5094807;28;20498;-60
2021/12/12 05:40:57;;;;;;;18.42;10.55;;;6.20;99.90;;;;;;5094544;28;20036;-60
2021/12/12 05:43:23;;;;;;;18.05;10.43;;;6.30;99.90;;;;;;5076552;28;20043;-60
2021/12/12 05:45:51;;;;;;;17.48;10.10;;;6.20;99.90;;;;;;5094349;28;20016;-60
2021/12/12 05:48:17;;;;;;;13.25;9.77;;;6.30;99.90;;;;;;5094577;28;20024;-60
2021/12/12 05:50:44;;;;;;;20.20;10.50;;;6.30;99.90;;;;;;5094433;28;20027;-60
2021/12/12 05:53:13;;;;;;;15.40;10.68;;;6.30;99.90;;;;;;5094287;28;20028;-60
2021/12/12 05:55:39;;;;;;;13.80;9.98;;;6.30;99.90;;;;;;5094362;28;20480;-60
2021/12/12 05:58:09;;;;;;;13.82;9.15;;;6.30;99.90;;;;;;5094484;28;20047;-60
2021/12/12 06:00:39;;;;;;;15.35;9.52;;;6.30;99.90;;;;;;5094219;28;20024;-60
2021/12/12 06:03:11;;;;;;;14.80;10.13;;;6.30;99.90;;;;;;5076341;28;20024;-61
2021/12/12 06:05:37;;;;;;;12.40;9.50;;;6.30;99.90;;;;;;5094220;28;20023;-60
2021/12/12 06:08:05;;;;;;;16.70;10.30;;;6.30;99.90;;;;;;5093958;28;20032;-61
2021/12/12 06:10:34;;;;;;;15.18;10.45;;;6.40;99.90;;;;;;5075653;28;20046;-60
2021/12/12 06:13:03;;;;;;;15.80;10.35;;;6.40;99.90;;;;;;5093947;28;20063;-61
2021/12/12 06:15:32;;;;;;;15.90;8.95;;;6.40;99.90;;;;;;5093885;28;20080;-61
2021/12/12 06:17:59;;;;;;;16.52;9.77;;;6.40;99.90;;;;;;5094027;28;20048;-60
2021/12/12 06:20:27;;;;;;;14.68;9.95;;;6.40;99.90;;;;;;5093833;28;20130;-60
2021/12/12 06:22:54;;;;;;;15.10;10.38;;;6.40;99.90;;;;;;5093734;28;20044;-61
2021/12/12 06:25:20;;;;;;;14.80;9.60;;;6.50;99.90;;;;;;5075668;28;20472;-61
2021/12/12 06:27:45;;;;;;;15.07;9.48;;;6.50;99.90;;;;;;5093662;28;20035;-60
2021/12/12 06:30:15;;;;;;;14.98;9.13;;;6.50;99.90;;;;;;5093783;28;20103;-60
2021/12/12 06:32:42;;;;;;;;;;;6.60;99.90;;;;;;5094295;28;20415;-60
2021/12/12 06:35:10;;;;;;;13.55;9.32;;;6.60;99.90;;;;;;5093766;28;19912;-60
2021/12/12 06:37:36;;;;;;;12.23;9.80;;;6.50;99.90;;;;;;5074743;28;20032;-60
2021/12/12 06:40:05;;;;;;;15.32;10.43;;;6.60;99.90;;;;;;5093316;28;20040;-60
2021/12/12 06:42:31;;;;;;;13.10;9.55;;;6.60;99.90;;;;;;5092890;28;20024;-60
2021/12/12 06:44:56;;;;;;;13.48;9.27;;;6.60;99.90;;;;;;5093485;28;20502;-61
2021/12/12 06:47:22;;;;;;;17.10;10.02;;;6.70;99.90;;;;;;5093070;28;20149;-60
2021/12/12 06:49:48;;;;;;;16.27;11.02;;;6.70;99.90;;;;;;5093419;28;20364;-61
2021/12/12 06:52:17;;;;;;;13.43;9.93;;;6.70;99.90;;;;;;5093430;28;20471;-60
2021/12/12 06:54:45;;;;;;;13.65;9.63;;;6.70;99.90;;;;;;5083417;28;20036;-60
2021/12/12 06:57:15;;;;;;;19.38;10.63;;;6.70;99.90;;;;;;5072384;28;20017;-60
2021/12/12 06:59:42;;;;;;;17.23;10.07;;;6.70;99.90;;;;;;5073062;28;20025;-61
2021/12/12 07:02:09;;;;;;;17.92;10.70;;;6.80;99.90;;;;;;5072807;28;20024;-61
2021/12/12 07:04:37;;;;;;;14.13;10.45;;;6.80;99.90;;;;;;5072333;28;20530;-60
2021/12/12 07:07:05;;;;;;;16.70;10.60;;;6.80;99.90;;;;;;5079727;28;20024;-61
2021/12/12 07:09:35;;;;;;;17.35;10.73;;;6.80;99.90;;;;;;5088886;28;20035;-60
2021/12/12 07:12:05;;;;;;;20.15;10.93;;;6.80;99.90;;;;;;5086136;28;20028;-60
2021/12/12 07:14:32;;;;;;;19.55;10.82;;;6.80;99.90;;;;;;5087634;28;20043;-60
2021/12/12 07:16:58;;;;;;;18.00;10.57;;;6.90;99.90;;;;;;5088157;28;20422;-61
2021/12/12 07:19:24;;;;;;;17.20;10.57;;;6.90;99.90;;;;;;5093088;28;20046;-60
2021/12/12 07:21:50;;;;;;;16.05;10.88;;;6.90;99.90;;;;;;5088976;28;20016;-60
2021/12/12 07:24:18;;;;;;;15.60;10.60;;;6.90;99.90;;;;;;5067262;28;20027;-60
2021/12/12 07:26:44;;;;;;;18.02;10.85;;;7.00;99.90;;;;;;5088157;28;20024;-60
2021/12/12 07:29:10;;;;;;;14.75;10.25;;;7.00;99.90;;;;;;5070137;28;20028;-60
2021/12/12 07:31:38;;;;;;;16.17;11.02;;;7.00;99.90;;;;;;5088002;28;20024;-61
2021/12/12 07:34:08;;;;;;;23.42;12.30;;;7.00;99.90;;;;;;5085294;28;20028;-60
2021/12/12 07:36:37;;;;;;;20.60;12.88;;;7.10;99.90;;;;;;5087793;28;20016;-60
2021/12/12 07:39:12;;;;;;;17.30;12.18;;;7.10;99.90;;;;;;5085991;28;20064;-60
2021/12/12 07:41:40;;;;;;;18.27;12.38;;;7.10;99.90;;;;;;5090128;28;20013;-60
2021/12/12 07:44:08;;;;;;;22.15;13.10;;;7.10;99.90;;;;;;5086165;28;20446;-60
2021/12/12 07:46:35;;;;;;;22.55;13.52;;;7.20;99.90;;;;;;5087366;28;20043;-60
2021/12/12 07:49:01;;;;;;;21.27;12.57;;;7.20;99.90;;;;;;5064986;28;20487;-60
2021/12/12 07:51:28;;;;;;;21.40;13.25;;;7.30;99.90;;;;;;5083215;28;20040;-60
2021/12/12 07:53:57;;;;;;;21.17;13.70;;;7.30;99.90;;;;;;5088007;28;20426;-60
2021/12/12 07:56:28;;;;;;;20.65;13.85;;;7.30;99.90;;;;;;5087546;28;20021;-60
2021/12/12 07:58:55;;;;;;;27.52;14.57;;;7.30;99.90;;;;;;5063765;28;20047;-60
2021/12/12 08:01:22;;;;;;;21.70;13.68;;;7.30;99.90;;;;;;5084295;28;20025;-60
2021/12/12 08:03:51;;;;;;;23.90;14.20;;;7.30;99.90;;;;;;5068911;28;20051;-60
2021/12/12 08:06:17;;;;;;;28.88;16.17;;;7.30;99.90;;;;;;5084404;28;20312;-61
2021/12/12 08:08:44;;;;;;;25.27;14.55;;;7.40;99.90;;;;;;5080005;28;20115;-60
2021/12/12 08:11:10;;;;;;;29.80;15.80;;;7.40;99.90;;;;;;5082179;28;20396;-60
2021/12/12 08:13:37;;;;;;;26.73;15.32;;;7.40;99.90;;;;;;5088471;28;20028;-60
2021/12/12 08:16:08;;;;;;;28.45;16.85;;;7.50;99.90;;;;;;5071393;28;20429;-60
2021/12/12 08:18:35;;;;;;;22.67;14.88;;;7.50;99.90;;;;;;5087719;28;20099;-60
2021/12/12 08:21:17;;;;;;;24.58;14.48;;;7.50;99.90;;;;;;5087987;28;20025;-60
2021/12/12 08:23:43;;;;;;;27.40;15.32;;;7.50;99.90;;;;;;5084997;28;20128;-61
2021/12/12 08:26:10;;;;;;;28.85;15.65;;;7.50;99.90;;;;;;5088678;28;20464;-60
2021/12/12 08:28:37;;;;;;;30.48;16.92;;;7.50;99.90;;;;;;5072530;28;20472;-60
2021/12/12 08:31:04;;;;;;;26.73;16.70;;;7.60;99.90;;;;;;5088881;28;20043;-60
2021/12/12 08:33:29;;;;;;;32.20;16.45;;;7.60;99.90;;;;;;5088114;28;20025;-60
2021/12/12 08:35:56;;;;;;;28.08;16.83;;;7.60;99.90;;;;;;5090507;28;20012;-61
2021/12/12 08:38:22;;;;;;;27.27;16.77;;;7.60;99.90;;;;;;5083010;28;20016;-61
2021/12/12 08:41:33;;;;;;;25.40;15.38;;;7.60;99.90;;;;;;5089203;28;20027;-60
2021/12/12 08:43:59;;;;;;;25.58;16.05;;;7.70;99.90;;;;;;5079129;28;20107;-60
2021/12/12 08:46:26;;;;;;;28.00;16.38;;;7.70;99.90;;;;;;5093078;28;20313;-61
2021/12/12 08:48:52;;;;;;;28.73;16.95;;;7.80;99.90;;;;;;5069712;28;20043;-61
2021/12/12 08:51:30;;;;;;;29.23;17.08;;;7.80;99.90;;;;;;5090389;28;20103;-60
2021/12/12 08:54:01;;;;;;;26.50;17.23;;;7.80;99.90;;;;;;5090115;28;20020;-61
2021/12/12 08:56:50;;;;;;;29.38;16.80;;;7.80;99.90;;;;;;5095492;28;20028;-60
2021/12/12 08:59:22;;;;;;;32.28;16.85;;;7.90;99.90;;;;;;5094677;28;20047;-60
2021/12/12 09:01:51;;;;;;;27.45;16.90;;;7.90;99.90;;;;;;5095729;28;20008;-60
2021/12/12 09:04:18;;;;;;;27.92;16.05;;;7.90;99.90;;;;;;5077071;28;20024;-60
2021/12/12 09:06:54;;;;;;;27.27;16.75;;;7.90;99.90;;;;;;5095052;28;20480;-61
2021/12/12 09:09:30;;;;;;;26.98;15.90;;;8.00;99.90;;;;;;5094890;28;20035;-60
2021/12/12 09:12:06;;;;;;;24.40;15.20;;;8.00;99.90;;;;;;5072516;28;20043;-61
2021/12/12 09:14:32;;;;;;;25.08;15.75;;;8.00;99.90;;;;;;5093181;28;20505;-61
2021/12/12 09:17:09;;;;;;;25.35;15.98;;;8.10;99.90;;;;;;5075049;28;20043;-61
2021/12/12 09:19:45;;;;;;;27.30;16.73;;;8.10;99.90;;;;;;5090417;28;20023;-61
2021/12/12 09:22:37;;;;;;;26.95;15.45;;;8.10;99.90;;;;;;5091431;28;20020;-61
2021/12/12 09:25:34;;;;;;;;;;;;;;;;;;;;;
2021/12/12 09:28:10;;;;;;;27.67;15.35;;;8.10;99.90;;;;;;5089913;28;20030;-60
2021/12/12 09:30:37;;;;;;;29.20;17.13;;;8.20;99.90;;;;;;5093005;28;20052;-60
2021/12/12 09:33:14;;;;;;;27.00;16.63;;;8.20;99.90;;;;;;5092551;28;20544;-60
2021/12/12 09:36:27;;;;;;;26.02;16.63;;;8.20;99.90;;;;;;5092602;28;20023;-61
2021/12/12 09:39:01;;;;;;;25.15;15.73;;;8.20;99.90;;;;;;5079309;28;20036;-60
2021/12/12 09:42:19;;;;;;;27.17;14.85;;;8.20;99.90;;;;;;5085545;28;20029;-61
2021/12/12 09:45:15;;;;;;;30.58;16.65;;;8.30;99.90;;;;;;5085599;28;20435;-60
2021/12/12 09:51:14;;;;;;;28.80;14.93;;;8.30;99.90;;;;;;5074132;28;20032;-61
2021/12/12 09:51:19;;;;;;;30.52;15.88;;;8.30;99.90;;;;;;5068017;28;20048;-60
2021/12/12 09:54:00;;;;;;;22.92;14.35;;;8.30;99.90;;;;;;5074062;28;20032;-60
2021/12/12 09:56:39;;;;;;;27.33;16.50;;;8.40;99.90;;;;;;5093800;28;20020;-60
2021/12/12 09:59:20;;;;;;;25.88;14.43;;;8.40;99.90;;;;;;5094300;28;20031;-60
2021/12/12 10:01:57;;;;;;;19.60;13.05;;;8.40;99.90;;;;;;5086768;28;20081;-61
2021/12/12 10:04:25;;;;;;;24.40;14.55;;;8.40;99.90;;;;;;5085087;28;20020;-60
2021/12/12 10:07:18;;;;;;;23.70;13.88;;;8.40;99.90;;;;;;5077054;28;20029;-61
2021/12/12 10:09:55;;;;;;;20.95;14.45;;;8.50;99.90;;;;;;5083158;28;20104;-60
2021/12/12 10:12:49;;;;;;;20.23;13.25;;;8.50;99.90;;;;;;5086892;28;20594;-60
2021/12/12 10:15:22;;;;;;;22.50;13.23;;;8.50;99.90;;;;;;5080639;28;20047;-60
2021/12/12 10:17:52;;;;;;;21.92;13.60;;;8.50;99.90;;;;;;5077549;28;20046;-60
2021/12/12 10:20:36;;;;;;;23.35;14.65;;;8.50;99.90;;;;;;5080561;28;20495;-60
2021/12/12 10:23:09;;;;;;;21.17;13.32;;;8.60;99.90;;;;;;5083387;28;20039;-60
2021/12/12 10:25:52;;;;;;;20.23;12.55;;;8.60;99.90;;;;;;5071947;28;20095;-60
2021/12/12 10:28:42;;;;;;;22.35;13.02;;;8.60;99.90;;;;;;5077360;28;20107;-61
2021/12/12 10:31:55;;;;;;;20.58;12.23;;;8.60;99.90;;;;;;5073271;28;20032;-61
2021/12/12 10:34:40;;;;;;;25.08;11.88;;;8.60;99.90;;;;;;5026728;28;20025;-60
2021/12/12 10:37:31;;;;;;;22.65;12.27;;;8.60;99.90;;;;;;5075867;28;20028;-60
2021/12/12 10:40:16;;;;;;;18.27;12.23;;;8.60;99.90;;;;;;5082723;28;20031;-61
2021/12/12 10:42:49;;;;;;;21.20;13.52;;;8.70;99.90;;;;;;5090569;28;20028;-61
2021/12/12 10:45:29;;;;;;;21.48;13.65;;;8.70;99.90;;;;;;5090494;28;20555;-61
2021/12/12 10:48:05;;;;;;;20.33;13.60;;;8.70;99.90;;;;;;5071913;28;20039;-61
2021/12/12 10:50:37;;;;;;;21.63;13.55;;;8.80;99.90;;;;;;5080083;28;20441;-61
2021/12/12 10:53:34;;;;;;;23.05;13.32;;;8.80;99.90;;;;;;5090447;28;20035;-60
2021/12/12 10:56:45;;;;;;;21.15;13.40;;;8.80;99.90;;;;;;5061419;28;20466;-61
2021/12/12 10:59:57;;;;;;;20.40;13.65;;;8.80;99.90;;;;;;5063422;28;20040;-61
2021/12/12 11:02:29;;;;;;;21.73;13.48;;;8.90;99.90;;;;;;5054154;28;20116;-61
2021/12/12 11:05:14;;;;;;;22.20;13.32;;;8.80;99.90;;;;;;5083204;28;20029;-61
2021/12/12 11:07:46;;;;;;;17.00;12.05;;;8.90;99.90;;;;;;5081722;28;20035;-60
2021/12/12 11:10:33;;;;;;;17.52;13.07;;;8.90;99.90;;;;;;5075324;28;20186;-60
2021/12/12 11:13:16;;;;;;;16.92;11.05;;;8.90;99.90;;;;;;5087518;28;20384;-60
2021/12/12 11:16:27;;;;;;;16.30;10.80;;;8.80;99.90;;;;;;5076154;28;20047;-61
2021/12/12 11:19:02;;;;;;;14.77;10.27;;;8.90;99.90;;;;;;5074704;28;20039;-61
2021/12/12 11:21:39;;;;;;;15.18;10.90;;;8.90;99.90;;;;;;5074653;28;20510;-61
2021/12/12 11:24:15;;;;;;;13.57;9.95;;;8.90;99.90;;;;;;5074298;28;20035;-61
2021/12/12 11:26:48;;;;;;;13.48;9.55;;;8.90;99.90;;;;;;5076443;28;20044;-61
2021/12/12 11:29:17;;;;;;;13.82;9.68;;;8.90;99.90;;;;;;5078969;28;20029;-60
2021/12/12 11:31:48;;;;;;;14.73;9.90;;;9.00;99.90;;;;;;5084065;28;20020;-60
2021/12/12 11:34:14;;;;;;;13.75;10.07;;;8.90;99.90;;;;;;5071436;28;20032;-61
2021/12/12 11:37:07;;;;;;;16.05;10.98;;;9.00;99.90;;;;;;5089682;28;20023;-60
2021/12/12 11:39:46;;;;;;;14.70;10.05;;;9.00;99.90;;;;;;5089643;28;20451;-61
2021/12/12 11:42:27;;;;;;;13.50;9.93;;;9.00;99.90;;;;;;5089988;28;20035;-61
2021/12/12 11:45:00;;;;;;;13.52;9.60;;;9.10;99.90;;;;;;5089685;28;20471;-61
2021/12/12 11:47:53;;;;;;;14.07;10.63;;;9.10;99.90;;;;;;5088861;28;20070;-61
2021/12/12 11:50:59;;;;;;;14.50;10.75;;;9.10;99.90;;;;;;5056689;28;20024;-61
2021/12/12 11:53:43;;;;;;;15.35;11.25;;;9.20;99.90;;;;;;5101600;28;20047;-61
2021/12/12 11:56:23;;;;;;;15.50;10.80;;;9.10;99.90;;;;;;5092067;28;20557;-61
2021/12/12 11:59:02;;;;;;;19.55;12.88;;;9.20;99.90;;;;;;5088006;28;20047;-61
2021/12/12 12:01:46;;;;;;;16.38;11.35;;;9.20;99.90;;;;;;5056558;28;20095;-61
2021/12/12 12:04:31;;;;;;;13.50;10.85;;;9.30;99.90;;;;;;5089635;28;20036;-61
2021/12/12 12:07:02;;;;;;;16.27;12.05;;;9.30;99.90;;;;;;5089758;28;20028;-61
2021/12/12 12:09:37;;;;;;;16.83;10.90;;;9.30;99.90;;;;;;5092544;28;20025;-61
2021/12/12 12:12:51;;;;;;;16.23;11.70;;;9.40;99.90;;;;;;5094001;28;20476;-61
2021/12/12 12:15:26;;;;;;;15.13;11.10;;;9.50;99.90;;;;;;5088938;28;20132;-61
2021/12/12 12:18:04;;;;;;;16.38;11.93;;;9.50;99.90;;;;;;5093742;28;20024;-61
2021/12/12 12:20:35;;;;;;;19.75;13.50;;;9.60;99.90;;;;;;5076944;28;20024;-61
2021/12/12 12:23:20;;;;;;;17.27;11.55;;;9.50;99.90;;;;;;5092481;28;20028;-61
2021/12/12 12:29:06;;;;;;;16.65;11.95;;;9.60;99.90;;;;;;5091480;28;20508;-61
2021/12/12 12:31:36;;;;;;;15.25;11.45;;;9.60;99.90;;;;;;5091807;28;20024;-61
2021/12/12 12:34:43;;;;;;;16.02;11.57;;;9.70;99.90;;;;;;5088978;28;20852;-61
2021/12/12 12:37:46;;;;;;;17.13;12.15;;;9.70;99.90;;;;;;5057114;28;20077;-60
2021/12/12 12:40:46;;;;;;;17.00;12.32;;;9.70;99.90;;;;;;5073714;28;20114;-61
2021/12/12 12:43:48;;;;;;;13.68;11.50;;;9.70;99.90;;;;;;5074189;28;20035;-61
2021/12/12 12:46:35;;;;;;;16.33;11.70;;;9.60;99.90;;;;;;5092807;28;20023;-61
2021/12/12 12:49:39;;;;;;;16.48;11.57;;;9.60;99.90;;;;;;5091082;28;20146;-61
2021/12/12 12:52:29;;;;;;;13.93;11.40;;;9.70;99.90;;;;;;5089125;28;20024;-61
2021/12/12 12:55:13;;;;;;;14.18;10.73;;;9.70;99.90;;;;;;5090078;28;20032;-61
2021/12/12 12:57:41;;;;;;;17.20;13.13;;;9.70;99.90;;;;;;5088178;28;20021;-61
2021/12/12 13:00:18;;;;;;;15.50;12.18;;;9.70;99.90;;;;;;5086879;28;20020;-60
2021/12/12 13:03:11;;;;;;;13.23;11.52;;;9.70;99.90;;;;;;5054179;28;20073;-61
2021/12/12 13:06:15;;;;;;;17.67;12.48;;;9.70;99.90;;;;;;5071981;28;20047;-61
2021/12/12 13:08:49;;;;;;;16.92;13.52;;;9.80;99.90;;;;;;5070084;28;20052;-61
2021/12/12 13:11:39;;;;;;;13.82;11.75;;;9.80;99.90;;;;;;5083726;28;20024;-61
2021/12/12 13:14:18;;;;;;;14.45;11.43;;;9.80;99.90;;;;;;5091985;28;20048;-61
2021/12/12 13:17:11;;;;;;;13.70;11.10;;;9.80;99.90;;;;;;5091932;28;20044;-61
2021/12/12 13:19:39;;;;;;;12.35;10.20;;;9.80;99.90;;;;;;5091176;28;20024;-61
2021/12/12 13:22:21;;;;;;;14.15;11.63;;;9.80;99.90;;;;;;5073536;28;20055;-61
2021/12/12 13:25:06;;;;;;;14.80;11.57;;;9.80;99.90;;;;;;5091760;28;20028;-61
2021/12/12 13:30:58;;;;;;;15.60;11.85;;;9.90;99.90;;;;;;5091845;28;20388;-61
2021/12/12 13:33:32;;;;;;;15.52;12.25;;;9.80;99.90;;;;;;5062857;28;20062;-61
2021/12/12 13:36:27;;;;;;;15.23;11.20;;;9.80;99.90;;;;;;5091156;28;20020;-62
2021/12/12 13:38:59;;;;;;;13.52;11.70;;;9.90;99.90;;;;;;5091008;28;20028;-61
2021/12/12 13:41:50;;;;;;;12.48;11.18;;;9.80;99.90;;;;;;5091572;28;20047;-61
2021/12/12 13:44:44;;;;;;;13.82;11.95;;;9.90;99.90;;;;;;5091041;28;20032;-61
2021/12/12 13:47:43;;;;;;;14.30;11.52;;;9.90;99.90;;;;;;5071059;28;20146;-61